Grand Forks Air Force Base
KRDR : now visible

Airfield :











YOU CAN JOIN US ON...

 
LOGIN :

Register | Disclaimer

   EN    FR    IT 

 









Legend :    VFR   Marginal VFR   IFR   Intensive IFR   Very Intensive IFR
Visi :
Ceiling :
>= 8 km
>= 3000ft
5 to 8 km
1000 to 3000 ft
1500m to 5 km
500 to 1000 ft
800 to 1500m
200 to 500 ft
< 800m
< 200 ft
Symbols :   Thunderstorms  Fog  Heavy snow  Heavy precipitations  Wind > 20 kt






- Airport Elevation : 913 ft


KRDR - Grand Forks Air Force Base

CURRENT METAR :
  • 310756Z AUTO 19005KT 10SM CLR 07/00 A3024 RMK AO2 SLP249 T00701005 CHINO RWY35 $

EXPIRED METARs :
  • 310656Z AUTO 19006KT 10SM CLR 08/M01 A3025 RMK AO2 SLP252 T00821008 CHINO RWY35 $
  • 310556Z AUTO 19006KT 10SM CLR 08/00 A3025 RMK AO2 SLP252 T00791001 10182 20073 401900010 51003 CHINO RWY35 $

TAF TAF KRDR
Valid from the 31 at 02:00 until the 01 at 08:00 UTC


310200Z 3102/0108 VRB06KT 9999 SKC QNH3022INS
BECMG 3112/3113 16010G15KT 9999 SCT065 QNH2997INS
BECMG 3119/3120 16020G25KT 9999 BKN055 510012 QNH2992INS
BECMG 0101/0102 16012KT 9999 BKN045 510053 QNH2977INS TX24/3122Z TN07/3111Z
KZMP FIR / North America



MET'MAP, your aeronautical weather chart ! - Copyright ORBIFLY December 2007 - Disclaimer

ORBIFLY MET'MAP TEAM :

Programming & Development : Alexandra Zaïnal
Concept & original design : Baudouin d'Aumeries
Assistance for programming : Marc-Olivier Méhu
Technical & hardware support : Manuel Goepfert

Contact : metmap@orbifly.com




SOURCES & CREDITS :

   NOAA       Earth
Advisory